createdAt,value
2019-02-25T00:00:37.198Z,0
2019-02-25T00:01:46.888Z,0
2019-02-25T00:02:56.070Z,0
2019-02-25T00:04:05.509Z,0
2019-02-25T00:05:15.191Z,0
2019-02-25T00:06:24.628Z,0
2019-02-25T00:07:33.872Z,0
2019-02-25T00:08:43.812Z,0
2019-02-25T00:09:53.269Z,0
2019-02-25T00:11:02.954Z,0
2019-02-25T00:12:12.661Z,0
2019-02-25T00:13:22.609Z,0
2019-02-25T00:14:32.299Z,0
2019-02-25T00:15:41.740Z,0
2019-02-25T00:16:51.178Z,0
2019-02-25T00:18:00.859Z,0
2019-02-25T00:19:10.599Z,0
2019-02-25T00:20:20.550Z,0
2019-02-25T00:21:30.004Z,0
2019-02-25T00:22:39.706Z,0
2019-02-25T00:23:49.145Z,0
2019-02-25T00:24:58.586Z,0
2019-02-25T00:26:08.525Z,0
2019-02-25T00:27:18.458Z,0
2019-02-25T00:28:28.145Z,0
2019-02-25T00:29:37.590Z,0
2019-02-25T00:30:47.024Z,0
2019-02-25T00:31:56.970Z,0
2019-02-25T00:33:06.906Z,0
2019-02-25T00:34:16.852Z,0
2019-02-25T00:35:26.532Z,0
2019-02-25T00:36:36.214Z,0
2019-02-25T00:37:45.907Z,0
2019-02-25T00:38:55.603Z,0
2019-02-25T00:40:05.589Z,0
2019-02-25T00:41:15.284Z,0
2019-02-25T00:42:25.242Z,0
2019-02-25T00:43:34.679Z,0
2019-02-25T00:44:43.921Z,0
2019-02-25T00:45:53.858Z,0
2019-02-25T00:47:03.544Z,0
2019-02-25T00:48:13.482Z,0
2019-02-25T00:49:23.426Z,0
2019-02-25T00:50:33.118Z,0
2019-02-25T00:51:43.059Z,0
2019-02-25T00:52:52.520Z,0
2019-02-25T00:54:02.204Z,0
2019-02-25T00:55:11.903Z,0
2019-02-25T00:56:21.594Z,0
2019-02-25T00:57:31.282Z,0
2019-02-25T00:58:41.222Z,0
2019-02-25T00:59:50.412Z,0
2019-02-25T01:01:00.344Z,0
2019-02-25T01:02:10.338Z,0
2019-02-25T01:03:20.017Z,0
2019-02-25T01:04:29.468Z,0
2019-02-25T01:05:39.402Z,0
2019-02-25T01:06:48.850Z,0
2019-02-25T01:07:58.539Z,0
2019-02-25T01:09:08.497Z,0
2019-02-25T01:10:17.938Z,0
2019-02-25T01:11:27.879Z,0
2019-02-25T01:12:37.816Z,0
2019-02-25T01:13:47.498Z,0
2019-02-25T01:14:56.939Z,0
2019-02-25T01:16:06.929Z,0
2019-02-25T01:17:16.864Z,0
2019-02-25T01:18:25.795Z,0
2019-02-25T01:19:35.498Z,0
2019-02-25T01:20:44.934Z,0
2019-02-25T01:21:54.376Z,0
2019-02-25T01:23:04.062Z,0
2019-02-25T01:24:13.750Z,0
2019-02-25T01:25:23.469Z,0
2019-02-25T01:26:33.471Z,0
2019-02-25T01:27:43.163Z,0
2019-02-25T01:28:52.846Z,0
2019-02-25T01:30:02.693Z,0
2019-02-25T01:31:12.132Z,0
2019-02-25T01:32:22.068Z,0
2019-02-25T01:33:31.763Z,0
2019-02-25T01:34:41.456Z,0
2019-02-25T01:35:51.391Z,0
2019-02-25T01:37:01.077Z,0
2019-02-25T01:38:10.764Z,0
2019-02-25T01:39:20.011Z,0
2019-02-25T01:40:29.963Z,0
2019-02-25T01:41:39.652Z,0
2019-02-25T01:42:49.345Z,0
2019-02-25T01:43:59.092Z,0
2019-02-25T01:45:08.841Z,0
2019-02-25T01:46:18.524Z,0
2019-02-25T01:47:28.219Z,0
2019-02-25T01:48:37.943Z,0
2019-02-25T01:49:47.636Z,0
2019-02-25T01:50:57.565Z,0
2019-02-25T01:52:07.526Z,0
2019-02-25T01:53:16.709Z,0
2019-02-25T01:54:26.158Z,0
2019-02-25T01:55:35.624Z,0
2019-02-25T01:56:45.312Z,0
2019-02-25T01:57:55.269Z,0
2019-02-25T01:59:05.218Z,0
2019-02-25T02:00:14.908Z,0
2019-02-25T02:01:24.869Z,0
2019-02-25T02:02:34.805Z,0
2019-02-25T02:03:43.995Z,0
2019-02-25T02:04:53.679Z,0
2019-02-25T02:06:03.632Z,0
2019-02-25T02:07:13.325Z,0
2019-02-25T02:08:23.272Z,0
2019-02-25T02:09:32.949Z,0
2019-02-25T02:10:42.915Z,0
2019-02-25T02:11:52.855Z,0
2019-02-25T02:13:02.809Z,0
2019-02-25T02:14:21.780Z,0
2019-02-25T02:15:31.215Z,0
2019-02-25T02:16:40.902Z,0
2019-02-25T02:17:50.843Z,0
2019-02-25T02:19:00.529Z,0
2019-02-25T02:20:10.476Z,0
2019-02-25T02:21:20.166Z,0
2019-02-25T02:22:29.662Z,0
2019-02-25T02:23:39.345Z,0
2019-02-25T02:27:12.027Z,0
2019-02-25T02:28:21.211Z,0
2019-02-25T02:29:31.146Z,0
2019-02-25T02:30:40.866Z,0
2019-02-25T02:31:50.573Z,0
2019-02-25T02:33:00.512Z,0
2019-02-25T02:34:09.709Z,0
2019-02-25T02:35:19.670Z,0
2019-02-25T02:36:29.121Z,0
2019-02-25T02:37:38.829Z,0
2019-02-25T02:38:48.589Z,0
2019-02-25T02:39:57.781Z,0
2019-02-25T02:41:08.046Z,0
2019-02-25T02:42:17.746Z,0
2019-02-25T02:43:27.693Z,0
2019-02-25T02:44:37.643Z,0
2019-02-25T02:45:47.362Z,0
2019-02-25T02:46:57.067Z,0
2019-02-25T02:48:07.040Z,0
2019-02-25T02:49:16.995Z,0
2019-02-25T02:50:26.951Z,0
2019-02-25T02:51:36.396Z,0
2019-02-25T02:52:46.427Z,0
2019-02-25T02:53:56.139Z,0
2019-02-25T02:55:06.121Z,0
2019-02-25T02:56:16.106Z,0
2019-02-25T02:57:26.064Z,0
2019-02-25T02:58:35.006Z,0
2019-02-25T02:59:44.960Z,0
2019-02-25T03:00:54.914Z,0
2019-02-25T03:02:04.354Z,0
2019-02-25T03:03:14.328Z,0
2019-02-25T03:04:24.039Z,0
2019-02-25T03:05:33.743Z,0
2019-02-25T03:06:43.678Z,0
2019-02-25T03:07:53.365Z,0
2019-02-25T03:09:03.302Z,0
2019-02-25T03:10:12.735Z,0
2019-02-25T03:11:22.187Z,0
2019-02-25T03:12:32.146Z,0
2019-02-25T03:13:41.858Z,0
2019-02-25T03:14:51.815Z,0
2019-02-25T03:16:00.763Z,0
2019-02-25T03:17:10.706Z,0
2019-02-25T03:18:20.644Z,0
2019-02-25T03:19:30.583Z,0
2019-02-25T03:20:40.266Z,0
2019-02-25T03:21:50.207Z,0
2019-02-25T03:22:59.928Z,0
2019-02-25T03:24:09.622Z,0
2019-02-25T03:25:19.322Z,0
2019-02-25T03:26:29.032Z,0
2019-02-25T03:27:38.980Z,0
2019-02-25T03:28:48.926Z,0
2019-02-25T03:29:58.641Z,0
2019-02-25T03:31:08.382Z,0
2019-02-25T03:32:18.409Z,0
2019-02-25T03:33:28.229Z,0
2019-02-25T03:34:38.216Z,0
2019-02-25T03:35:47.921Z,0
2019-02-25T03:36:57.869Z,0
2019-02-25T03:38:07.574Z,0
2019-02-25T03:39:17.546Z,0
2019-02-25T03:40:27.288Z,0
2019-02-25T03:41:37.253Z,0
2019-02-25T03:42:47.196Z,0
2019-02-25T03:43:57.232Z,0
2019-02-25T03:45:06.691Z,0
2019-02-25T03:46:16.373Z,0
2019-02-25T03:47:26.370Z,0
2019-02-25T03:48:36.073Z,0
2019-02-25T03:49:46.018Z,0
2019-02-25T03:50:56.050Z,0
2019-02-25T03:52:05.769Z,0
2019-02-25T03:53:15.225Z,0
2019-02-25T03:54:25.176Z,0
2019-02-25T03:55:34.619Z,0
2019-02-25T03:56:44.311Z,0
2019-02-25T03:57:54.043Z,0
2019-02-25T03:59:04.002Z,0
2019-02-25T04:00:13.970Z,0
2019-02-25T04:01:23.675Z,0
2019-02-25T04:02:33.374Z,0
2019-02-25T04:03:43.341Z,0
2019-02-25T04:04:53.292Z,0
2019-02-25T04:06:03.088Z,0
2019-02-25T04:07:13.075Z,0
2019-02-25T04:08:23.013Z,0
2019-02-25T04:09:32.962Z,0
2019-02-25T04:10:42.898Z,0
2019-02-25T04:11:52.891Z,0
2019-02-25T04:13:02.838Z,0
2019-02-25T04:14:12.777Z,0
2019-02-25T04:15:22.751Z,0
2019-02-25T04:16:32.446Z,0
2019-02-25T04:17:42.141Z,0
2019-02-25T04:18:51.584Z,0
2019-02-25T04:20:01.537Z,0
2019-02-25T04:21:11.226Z,0
2019-02-25T04:22:20.926Z,0
2019-02-25T04:23:30.621Z,0
2019-02-25T04:24:40.574Z,0
2019-02-25T04:25:50.532Z,0
2019-02-25T04:27:02.946Z,0
2019-02-25T04:28:12.645Z,0
2019-02-25T04:29:22.357Z,0
2019-02-25T04:30:31.823Z,0
2019-02-25T04:31:41.267Z,0
2019-02-25T04:32:51.210Z,0
2019-02-25T04:34:01.153Z,0
2019-02-25T04:35:10.607Z,0
2019-02-25T04:36:20.555Z,0
2019-02-25T04:37:30.510Z,0
2019-02-25T04:38:40.208Z,0
2019-02-25T04:39:50.164Z,0
2019-02-25T04:40:59.852Z,0
2019-02-25T04:42:09.792Z,0
2019-02-25T04:43:19.500Z,0
2019-02-25T04:44:28.697Z,0
2019-02-25T04:45:38.404Z,0
2019-02-25T04:46:48.100Z,0
2019-02-25T04:47:57.297Z,0
2019-02-25T04:49:07.265Z,0
2019-02-25T04:50:17.220Z,0
2019-02-25T04:51:27.159Z,0
2019-02-25T04:52:36.847Z,0
2019-02-25T04:53:46.280Z,0
2019-02-25T04:54:55.727Z,0
2019-02-25T04:56:05.673Z,0
2019-02-25T04:57:15.617Z,0
2019-02-25T04:58:25.316Z,0
2019-02-25T04:59:35.014Z,0
2019-02-25T05:00:44.963Z,0
2019-02-25T05:01:54.454Z,0
2019-02-25T05:03:03.915Z,0
2019-02-25T05:04:13.667Z,0
2019-02-25T05:05:23.695Z,0
2019-02-25T05:06:33.659Z,0
2019-02-25T05:07:43.344Z,0
2019-02-25T05:08:52.794Z,0
2019-02-25T05:10:02.241Z,0
2019-02-25T05:11:11.928Z,0
2019-02-25T05:12:21.616Z,0
2019-02-25T05:13:31.071Z,0
2019-02-25T05:14:40.512Z,0
2019-02-25T05:15:50.211Z,0
2019-02-25T05:16:59.658Z,0
2019-02-25T05:18:09.617Z,0
2019-02-25T05:19:19.590Z,0
2019-02-25T05:20:29.297Z,0
2019-02-25T05:21:39.243Z,0
2019-02-25T05:22:48.754Z,0
2019-02-25T05:23:58.448Z,0
2019-02-25T05:25:08.184Z,0
2019-02-25T05:26:18.127Z,0
2019-02-25T05:27:28.066Z,0
2019-02-25T05:28:38.056Z,0
2019-02-25T05:29:48.057Z,0
2019-02-25T05:30:58.089Z,0
2019-02-25T05:32:08.071Z,0
2019-02-25T05:33:18.028Z,0
2019-02-25T05:34:27.738Z,0
2019-02-25T05:35:37.440Z,0
2019-02-25T05:36:46.677Z,0
2019-02-25T05:37:56.380Z,0
2019-02-25T05:39:06.337Z,0
2019-02-25T05:40:16.315Z,0
2019-02-25T05:41:25.772Z,0
2019-02-25T05:42:35.462Z,0
2019-02-25T05:43:45.155Z,0
2019-02-25T05:44:54.839Z,0
2019-02-25T05:46:04.789Z,0
2019-02-25T05:47:14.752Z,0
2019-02-25T05:48:24.194Z,0
2019-02-25T05:49:33.391Z,0
2019-02-25T05:50:43.080Z,0
2019-02-25T05:51:52.258Z,0
2019-02-25T05:53:01.961Z,0
2019-02-25T05:54:11.675Z,0
2019-02-25T05:55:21.633Z,0
2019-02-25T05:56:31.588Z,0
2019-02-25T05:57:41.549Z,0
2019-02-25T05:58:50.994Z,0
2019-02-25T06:00:00.546Z,0
2019-02-25T06:01:10.048Z,0
2019-02-25T06:02:19.758Z,0
2019-02-25T06:03:29.729Z,0
2019-02-25T06:04:39.254Z,0
2019-02-25T06:05:48.945Z,0
2019-02-25T06:06:58.652Z,0
2019-02-25T06:08:08.604Z,0
2019-02-25T06:09:18.091Z,0
2019-02-25T06:10:28.031Z,0
2019-02-25T06:11:37.724Z,0
2019-02-25T06:12:47.687Z,0
2019-02-25T06:13:57.120Z,0
2019-02-25T06:15:06.567Z,0
2019-02-25T06:16:16.510Z,0
2019-02-25T06:17:26.201Z,0
2019-02-25T06:18:36.140Z,0
2019-02-25T06:19:45.846Z,80
2019-02-25T06:20:55.790Z,88
2019-02-25T06:22:05.743Z,40
2019-02-25T06:23:15.438Z,48
2019-02-25T06:24:25.140Z,52
2019-02-25T06:25:35.168Z,60
2019-02-25T06:26:45.969Z,68
2019-02-25T06:27:55.421Z,72
2019-02-25T06:29:04.862Z,80
2019-02-25T06:30:14.801Z,88
2019-02-25T06:31:24.245Z,96
2019-02-25T06:32:33.938Z,104
2019-02-25T06:33:43.670Z,112
2019-02-25T06:34:55.239Z,124
2019-02-25T06:36:05.174Z,132
2019-02-25T06:37:14.888Z,140
2019-02-25T06:38:24.836Z,152
2019-02-25T06:39:34.824Z,164
2019-02-25T06:40:44.772Z,172
2019-02-25T06:41:54.472Z,184
2019-02-25T06:43:04.159Z,192
2019-02-25T06:44:13.848Z,200
2019-02-25T06:45:23.836Z,208
2019-02-25T06:46:33.051Z,216
2019-02-25T06:47:42.992Z,228
2019-02-25T06:48:52.442Z,236
2019-02-25T06:50:02.375Z,240
2019-02-25T06:51:12.316Z,252
2019-02-25T06:52:22.567Z,260
2019-02-25T06:53:32.510Z,268
2019-02-25T06:54:42.448Z,276
2019-02-25T06:55:52.191Z,280
2019-02-25T06:57:02.140Z,288
2019-02-25T06:58:12.096Z,300
2019-02-25T06:59:21.548Z,304
2019-02-25T07:00:31.250Z,312
2019-02-25T07:01:41.191Z,320
2019-02-25T07:02:50.888Z,324
2019-02-25T07:04:00.824Z,332
2019-02-25T07:05:10.775Z,340
2019-02-25T07:06:20.210Z,348
2019-02-25T07:07:29.896Z,356
2019-02-25T07:08:39.093Z,360
2019-02-25T07:09:49.025Z,368
2019-02-25T07:10:58.206Z,376
2019-02-25T07:12:08.144Z,380
2019-02-25T07:13:17.609Z,384
2019-02-25T07:14:27.045Z,392
2019-02-25T07:15:36.745Z,396
2019-02-25T07:16:46.474Z,404
2019-02-25T07:17:56.427Z,408
2019-02-25T07:19:06.408Z,416
2019-02-25T07:20:16.395Z,424
2019-02-25T07:21:26.080Z,428
2019-02-25T07:22:35.533Z,432
2019-02-25T07:23:45.243Z,436
2019-02-25T07:24:59.953Z,440
2019-02-25T07:26:09.897Z,444
2019-02-25T07:27:19.593Z,452
2019-02-25T07:28:29.531Z,456
2019-02-25T07:29:38.965Z,460
2019-02-25T07:30:48.667Z,464
2019-02-25T07:31:58.613Z,468
2019-02-25T07:33:07.805Z,472
2019-02-25T07:34:17.501Z,480
2019-02-25T07:35:28.314Z,484
2019-02-25T07:36:38.008Z,484
2019-02-25T07:37:47.715Z,488
2019-02-25T07:38:59.374Z,496
2019-02-25T07:40:09.080Z,500
2019-02-25T07:41:18.768Z,508
2019-02-25T07:42:28.462Z,508
2019-02-25T07:43:37.892Z,516
2019-02-25T07:44:47.833Z,516
2019-02-25T07:45:57.537Z,516
2019-02-25T07:47:07.487Z,524
2019-02-25T07:48:16.920Z,532
2019-02-25T07:49:26.610Z,536
2019-02-25T07:50:36.289Z,544
2019-02-25T07:51:54.468Z,548
2019-02-25T07:53:04.181Z,548
2019-02-25T07:54:13.655Z,548
2019-02-25T07:55:23.114Z,548
2019-02-25T07:56:32.802Z,544
2019-02-25T07:57:42.541Z,556
2019-02-25T07:58:51.728Z,556
2019-02-25T08:00:01.663Z,556
2019-02-25T08:01:11.611Z,560
2019-02-25T08:02:21.298Z,560
2019-02-25T08:03:30.984Z,560
2019-02-25T08:04:40.949Z,564
2019-02-25T08:05:50.899Z,564
2019-02-25T08:07:00.846Z,568
2019-02-25T08:08:10.854Z,572
2019-02-25T08:09:20.798Z,572
2019-02-25T08:10:30.735Z,572
2019-02-25T08:11:40.173Z,576
2019-02-25T08:12:49.854Z,572
2019-02-25T08:13:59.796Z,576
2019-02-25T08:15:11.482Z,580
2019-02-25T08:16:21.182Z,580
2019-02-25T08:17:30.883Z,584
2019-02-25T08:18:40.819Z,584
2019-02-25T08:19:50.499Z,588
2019-02-25T08:20:59.929Z,588
2019-02-25T08:22:09.623Z,592
2019-02-25T08:23:19.567Z,592
2019-02-25T08:24:37.199Z,592
2019-02-25T08:25:46.667Z,592
2019-02-25T08:26:55.863Z,596
2019-02-25T08:28:05.311Z,596
2019-02-25T08:29:14.993Z,600
2019-02-25T08:30:24.685Z,600
2019-02-25T08:31:34.369Z,604
2019-02-25T08:32:43.814Z,604
2019-02-25T08:33:55.439Z,604
2019-02-25T08:35:05.559Z,608
2019-02-25T08:36:15.245Z,608
2019-02-25T08:37:25.193Z,612
2019-02-25T08:38:34.882Z,612
2019-02-25T08:39:44.815Z,616
2019-02-25T08:40:54.806Z,620
2019-02-25T08:42:04.495Z,620
2019-02-25T08:43:14.182Z,620
2019-02-25T08:44:23.629Z,624
2019-02-25T08:45:33.321Z,628
2019-02-25T08:46:43.039Z,632
2019-02-25T08:47:51.988Z,632
2019-02-25T08:49:01.673Z,636
2019-02-25T08:50:11.120Z,636
2019-02-25T08:51:21.067Z,636
2019-02-25T08:52:30.275Z,640
2019-02-25T08:53:39.727Z,644
2019-02-25T08:54:49.425Z,644
2019-02-25T08:56:00.749Z,648
2019-02-25T08:57:10.455Z,652
2019-02-25T08:58:20.148Z,652
2019-02-25T08:59:29.844Z,656
2019-02-25T09:00:39.038Z,656
2019-02-25T09:01:48.491Z,660
2019-02-25T09:02:58.196Z,664
2019-02-25T09:04:08.203Z,668
2019-02-25T09:05:18.142Z,668
2019-02-25T09:06:27.329Z,672
2019-02-25T09:07:37.018Z,676
2019-02-25T09:08:46.720Z,684
2019-02-25T09:09:56.415Z,680
2019-02-25T09:11:13.865Z,688
2019-02-25T09:12:24.053Z,688
2019-02-25T09:13:33.496Z,688
2019-02-25T09:14:43.192Z,696
2019-02-25T09:15:53.151Z,700
2019-02-25T09:17:03.095Z,704
2019-02-25T09:18:12.534Z,704
2019-02-25T09:19:22.231Z,708
2019-02-25T09:20:31.927Z,712
2019-02-25T09:21:41.640Z,716
2019-02-25T09:22:51.356Z,716
2019-02-25T09:24:01.060Z,724
2019-02-25T09:25:10.761Z,728
2019-02-25T09:26:20.701Z,732
2019-02-25T09:27:30.386Z,736
2019-02-25T09:28:40.334Z,744
2019-02-25T19:39:41.106Z,12
2019-02-25T19:41:02.237Z,12
2019-02-25T19:42:14.987Z,12
2019-02-25T19:43:27.472Z,12
2019-02-25T19:44:42.912Z,12
2019-02-25T19:45:52.738Z,12
2019-02-25T19:47:04.396Z,12
2019-02-25T19:48:17.060Z,12
2019-02-25T19:49:29.763Z,12
2019-02-25T19:50:54.510Z,12
2019-02-25T19:52:14.175Z,12
2019-02-25T19:53:27.337Z,8
2019-02-25T19:54:50.645Z,8
2019-02-25T19:56:00.563Z,8
2019-02-25T19:57:11.537Z,8
2019-02-25T19:58:31.494Z,8
2019-02-25T19:59:55.387Z,8
2019-02-25T20:01:13.476Z,8
2019-02-25T20:02:27.670Z,0
2019-02-25T20:03:49.569Z,0
2019-02-25T20:04:59.332Z,0
2019-02-25T20:06:15.869Z,0
2019-02-25T20:07:38.233Z,0
2019-02-25T20:08:51.575Z,0
2019-02-25T20:10:05.148Z,0
2019-02-25T20:11:17.375Z,0
2019-02-25T20:12:28.183Z,0
2019-02-25T20:13:37.997Z,0
2019-02-25T20:14:54.192Z,0
2019-02-25T20:16:18.072Z,0
2019-02-25T20:17:37.382Z,0
2019-02-25T20:18:49.087Z,0
2019-02-25T20:19:58.825Z,0
2019-02-25T20:21:14.452Z,0
2019-02-25T20:22:25.608Z,0
2019-02-25T20:23:37.618Z,0
2019-02-25T20:24:57.756Z,0
2019-02-25T20:26:11.263Z,12
2019-02-25T20:27:25.643Z,0
2019-02-25T20:28:35.984Z,0
2019-02-25T20:29:52.768Z,0
2019-02-25T20:31:05.575Z,0
2019-02-25T20:32:24.676Z,0
2019-02-25T20:33:41.702Z,0
2019-02-25T20:35:01.190Z,0
2019-02-25T20:36:11.318Z,0
2019-02-25T20:37:34.025Z,0
2019-02-25T20:38:46.935Z,0
2019-02-25T20:39:56.558Z,0
2019-02-25T20:41:09.471Z,0
2019-02-25T20:42:30.974Z,0
2019-02-25T20:43:42.029Z,0
2019-02-25T20:45:04.865Z,0
2019-02-25T20:46:19.894Z,0
2019-02-25T20:47:35.799Z,0
2019-02-25T20:48:55.364Z,0
2019-02-25T20:50:10.423Z,0
2019-02-25T20:51:22.731Z,0
2019-02-25T20:52:40.391Z,0
2019-02-25T20:53:59.052Z,0
2019-02-25T20:55:15.801Z,0
2019-02-25T20:56:31.416Z,0
2019-02-25T20:57:44.753Z,0
2019-02-25T20:58:54.507Z,0
2019-02-25T21:00:10.791Z,0
2019-02-25T21:01:27.374Z,0
2019-02-25T21:02:37.427Z,0
2019-02-25T21:03:56.834Z,0
2019-02-25T21:05:07.739Z,0
2019-02-25T21:06:26.004Z,0
2019-02-25T21:07:41.052Z,0
2019-02-25T21:08:52.153Z,0
2019-02-25T21:10:10.057Z,0
2019-02-25T21:11:20.857Z,0
2019-02-25T21:12:30.567Z,0
2019-02-25T21:13:44.896Z,0
2019-02-25T21:14:54.337Z,0
2019-02-25T21:16:12.642Z,0
2019-02-25T21:17:23.899Z,0
2019-02-25T21:18:35.607Z,0
2019-02-25T21:19:49.115Z,0
2019-02-25T21:21:00.712Z,0
2019-02-25T21:22:14.094Z,0
2019-02-25T21:23:23.579Z,0
2019-02-25T21:24:39.907Z,0
2019-02-25T21:25:53.377Z,0
2019-02-25T21:27:13.035Z,0
2019-02-25T21:28:25.067Z,0
2019-02-25T21:29:43.883Z,0
2019-02-25T21:30:57.677Z,0
2019-02-25T21:32:07.414Z,0
2019-02-25T21:33:30.273Z,0
2019-02-25T21:34:40.091Z,0
2019-02-25T21:35:54.502Z,0
2019-02-25T21:37:07.585Z,0
2019-02-25T21:38:17.328Z,0
2019-02-25T21:39:29.307Z,0
2019-02-25T21:40:39.758Z,0
2019-02-25T21:41:52.598Z,0
2019-02-25T21:43:03.968Z,0
2019-02-25T21:44:18.991Z,0
2019-02-25T21:45:37.058Z,0
2019-02-25T21:46:53.997Z,0
2019-02-25T21:48:10.287Z,0
2019-02-25T21:49:20.210Z,0
2019-02-25T21:50:42.721Z,0
2019-02-25T21:51:55.063Z,0
2019-02-25T21:53:09.336Z,0
2019-02-25T21:54:23.246Z,0
2019-02-25T21:55:39.491Z,0
2019-02-25T21:56:48.469Z,0
2019-02-25T21:58:07.233Z,0
2019-02-25T21:59:20.181Z,0
2019-02-25T22:00:40.255Z,0
2019-02-25T22:01:50.452Z,0
2019-02-25T22:03:04.455Z,0
2019-02-25T22:04:27.205Z,0
2019-02-25T22:05:36.402Z,0
2019-02-25T22:06:51.160Z,0
2019-02-25T22:08:11.202Z,0
2019-02-25T22:09:41.301Z,0
2019-02-25T22:10:53.663Z,0
2019-02-25T22:12:03.280Z,0
2019-02-25T22:13:21.518Z,0
2019-02-25T22:14:32.776Z,0
2019-02-25T22:15:47.735Z,0
2019-02-25T22:17:03.193Z,0
2019-02-25T22:18:16.352Z,0
2019-02-25T22:19:27.807Z,0
2019-02-25T22:20:51.348Z,0
2019-02-25T22:22:09.512Z,0
2019-02-25T22:23:21.932Z,0
2019-02-25T22:24:40.693Z,0
2019-02-25T22:25:50.440Z,0
2019-02-25T22:27:03.204Z,0
2019-02-25T22:28:14.867Z,0
2019-02-25T22:29:24.841Z,0
2019-02-25T22:30:34.309Z,0
2019-02-25T22:31:48.871Z,0
2019-02-25T22:33:00.523Z,0
2019-02-25T22:34:23.574Z,0
2019-02-25T22:35:42.439Z,0
2019-02-25T22:37:02.370Z,0
2019-02-25T22:38:12.265Z,0
2019-02-25T22:39:27.316Z,0
2019-02-25T22:40:43.691Z,0
2019-02-25T22:41:55.830Z,0
2019-02-25T22:43:06.103Z,0
2019-02-25T22:44:17.906Z,0
2019-02-25T22:45:27.391Z,0
2019-02-25T22:46:46.074Z,0
2019-02-25T22:47:55.828Z,0
2019-02-25T22:49:11.809Z,0
2019-02-25T22:50:22.298Z,0
2019-02-25T22:51:39.353Z,0
2019-02-25T22:52:51.246Z,0
2019-02-25T22:54:10.240Z,0
2019-02-25T22:55:27.193Z,0
2019-02-25T22:56:36.679Z,0
2019-02-25T22:57:55.815Z,0
2019-02-25T22:59:09.509Z,0
2019-02-25T23:00:19.698Z,0
2019-02-25T23:01:31.374Z,0
2019-02-25T23:02:55.002Z,0
2019-02-25T23:04:06.660Z,0
2019-02-25T23:05:27.837Z,0
2019-02-25T23:06:43.987Z,0
2019-02-25T23:07:59.538Z,0
2019-02-25T23:09:14.256Z,0
2019-02-25T23:10:29.536Z,0
2019-02-25T23:11:44.204Z,0
2019-02-25T23:12:57.816Z,0
2019-02-25T23:14:11.477Z,0
2019-02-25T23:15:32.683Z,0
2019-02-25T23:16:50.225Z,0
2019-02-25T23:18:16.582Z,0
2019-02-25T23:19:29.281Z,0
2019-02-25T23:20:40.911Z,0
2019-02-25T23:21:50.673Z,0
2019-02-25T23:23:09.082Z,0
2019-02-25T23:24:19.074Z,0
2019-02-25T23:25:29.216Z,0
2019-02-25T23:26:39.216Z,0
2019-02-25T23:27:50.949Z,0
2019-02-25T23:29:06.604Z,0
2019-02-25T23:30:16.081Z,0
2019-02-25T23:31:25.576Z,0
2019-02-25T23:32:41.323Z,0
2019-02-25T23:33:56.145Z,0
2019-02-25T23:35:09.372Z,0
2019-02-25T23:36:29.045Z,0
2019-02-25T23:37:39.030Z,0
2019-02-25T23:38:54.740Z,0
2019-02-25T23:40:16.600Z,0
2019-02-25T23:41:26.527Z,0
2019-02-25T23:42:48.886Z,0
2019-02-25T23:43:58.778Z,0
2019-02-25T23:45:08.781Z,0
2019-02-25T23:46:27.417Z,0
2019-02-25T23:47:44.372Z,0
2019-02-25T23:48:54.357Z,0
2019-02-25T23:50:13.525Z,0
2019-02-25T23:51:28.208Z,0
2019-02-25T23:52:42.203Z,0
2019-02-25T23:53:58.265Z,0
2019-02-25T23:55:07.755Z,0
2019-02-25T23:56:31.730Z,0
2019-02-25T23:57:42.304Z,0
2019-02-25T23:58:57.046Z,0
